Camden, AL

5:53 AM CDT on May 30, 2015 (GMT -0500)
Maxwell Air Force Base | | Change Station
CLOSE
Current Station
Airport
Location: Maxwell AFB,
Elevation: 167 ft
Nearby Weather Stations

Elev 167 ft 32.38 °N, 86.37 °W | Updated 55 minutes ago

Partly Cloudy
Partly Cloudy
66 °F
Feels Like 66 °F
N
1
Wind Variable Wind from NE

Today
High -- | Low -- °F
--% Chance of Precip.
Yesterday
High -- | Low -- °F
Precip. -- in
5:44 AM 7:49 PM
Waxing Gibbous, 89% visible
Pressure 30.11 in
Visibility 6.0 miles
Clouds Clear
Dew Point 65 °F
Humidity 98%
Rainfall 0.00 in
Snow Depth Not available.
UV 0 out of 12
Pollen 3.40 out of 12
Air Quality Not available.
Flu Activity Sporadic
METAR KMXF 300958Z AUTO 04001KT 6SM BR CLR 19/19 A3010 RMK AO2 SLP194 T01880185

More Conditions Fewer Conditions

Pressure 30.11 in
Visibility 6.0 miles
Clouds Clear
Dew Point 65 °F
Humidity 98%
Rainfall 0.00 in
Snow Depth Not available.
UV 0 out of 12
Pollen 3.40 out of 12
Air Quality Not available.
Flu Activity Sporadic
METAR KMXF 300958Z AUTO 04001KT 6SM BR CLR 19/19 A3010 RMK AO2 SLP194 T01880185

More Conditions Fewer Conditions

10-Day Weather Forecast

Almanac

Astronomy

May. 30, 2015 Rise Set
Actual Time
Civil Twilight
Nautical Twilight
Astronomical Twilight
Moon
Length of Visible Light
Length of Day
Tomorrow will be .
, % of the Moon is Illuminated

Today's Extremes

State Highs State Lows

Community

WunderPhotos

Upload Photos

1,825,478 photos uploaded!

WunderBlogs® & News

Nearby

Air Quality

  Air Quality AQ Index Pollutant
Not available.

Snow Depth

Station Depth Elevation

Earthquake Activity

City Distance Mag. Time & Date
Minimum magnitude displayed is 2.5.

Coastal Water Temperatures

Place Temperature

Stations

Nearby Weather Stations

Station Location Temp. Windchill Dew Point Humidity Wind Precip. Elev Updated Type